GCLPLPMA

Guest
Details From GCLP - Gran Canaria - Gando
To LPMA - Madeira
Flight Number -
Tags Generated
Created
Modified
Stats Distance 303 nm / 561 km
Max Altitude 0 ft / 0 m
Waypoints 3
Social Downloads 4
Likes 0
Share VATSIM

Download

Looking for another format? Having issues loading an existing format? Contact us
Advertisement - Login to hide

Notes

Generated

Route

GCLP FUN LPMA

ID Type Via Altitude Latitude Longitude Leg Dist Tot Dist Heading (true) Name
O GCLP APT - 0 ft / 0 m 27.91818˚ -15.39035˚ - 0 nm - -
FUN VOR - 0 ft / 0 m 32.74704˚ -16.70569˚ 297 nm 297 nm 347° / 346° MADEIRA VOR-DME
O LPMA APT - 0 ft / 0 m 32.68900˚ -16.78409˚ 5 nm 303 nm 229° / 229° -

Altitude Profile

Advertisement - Login to hide

Weather


0- 5 10 15 20 25 30 35+ Temperature / ° C

Clouds and Precipitation
Forecast for 2018-05-27 06:00 UTC. Updated 35 minutes ago

Ground ~20,000 ft ~40,000 ft Winds

GCLP

Details ICAO GCLP (LPA)
Name Gran Canaria
Region Canary Islands
Timezone Atlantic/Canary (UTC+1.0)
Stats Elevation 77 ft / 23 m (AMSL)
Location 27.931544° -15.385592°
Runways 2
Magnetic Variation 4.633° W

METAR

GCLP 270530Z 36014KT 9999 FEW025 BKN045 18/12 Q1019 NOSIG

Decode

TAF

TAF GCLP 270200Z 2703/2803 36013KT 9999 FEW045 TX24/2714Z TN18/2705Z= TAF AMD KHRT 270243Z 2702/2807 VRB06KT 9999 SCT040 BKN100 QNH2980INS BECMG 2711/2712 03012G20KT 9999 SCT020 BKN060 QNH2972INS BECMG 2719/2720 04015G25KT 6000 -SHRA BKN025 OVC050 QNH2968INS BECMG 2800/2801 08015G25KT 6000 -SHRA BKN010 OVC030 QNH2963INS TX28/2718Z TN22/2710Z

Decode

Departure Runways

ID Width Length Bearing (true) Bearing (mag) Surface Threshold Offset Overrun Length
03L 148 ft / 45 m 10,203 ft / 3,110 m 21.33° 25.96° Asphalt 0 ft / 0 m 656 ft / 200 m
03R 148 ft / 45 m 10,200 ft / 3,109 m 21.32° 25.95° Asphalt 0 ft / 0 m 673 ft / 205 m
21L 148 ft / 45 m 10,200 ft / 3,109 m 201.33° 205.96° Asphalt 0 ft / 0 m 689 ft / 210 m
21R 148 ft / 45 m 10,203 ft / 3,110 m 201.33° 205.96° Asphalt 0 ft / 0 m 755 ft / 230 m

LPMA

Details ICAO LPMA (FNC)
Name Madeira
Region Portugal
Timezone Atlantic/Madeira (UTC+1.0)
Stats Elevation 192 ft / 59 m (AMSL)
Location 32.697704° -16.774449°
Runways 1
Magnetic Variation 4.926° W

METAR

LPMA 270530Z 34007KT 290V040 9999 FEW016 16/09 Q1020

Decode

TAF

TAF LPMA 262300Z 2700/2724 36010KT 9999 SCT016 SCT030 TEMPO 2700/2708 BKN015 PROB30 TEMPO 2708/2718 36015G25KT

Decode

Destination Runways

ID Width Length Bearing (true) Bearing (mag) Surface Threshold Offset Overrun Length
05 141 ft / 43 m 8,683 ft / 2,647 m 42.98° 47.91° Asphalt 472 ft / 144 m 0 ft / 0 m
23 141 ft / 43 m 8,683 ft / 2,647 m 222.99° 227.92° Asphalt 466 ft / 142 m 0 ft / 0 m

Popular Alternatives